Flight Track Log - Related Links

Times and Time Zones

All times are in EDT time to prevent confusion due to time zone crossing. See the JZA8745 flight status page for this flight to view local times or setup timezone preferences in your user account.


Time Position Orientation Groundspeed Altitude Reporting Facility
EDT Latitude Longitude Course Direction KTS MPH feet Rate Location/Type
Thu 02:55:14 PM 47.5500 -65.7833 254° West 190 219 4,600  Level Moncton Center
Thu 02:56:14 PM 47.5333 -65.8667 254° West 160 184 6,000 1,350 Climbing Moncton Center
Thu 02:57:14 PM 47.5167 -65.9167 244° Southwest 160 184 7,300 1,400 Climbing Moncton Center
Thu 02:58:14 PM 47.5000 -65.9833 250° West 150 173 8,800 1,350 Climbing Moncton Center
Thu 02:59:14 PM 47.4833 -66.0333 244° Southwest 160 184 10,000 1,200 Climbing Moncton Center
Thu 03:00:14 PM 47.4500 -66.0833 225° Southwest 150 173 11,200 1,150 Climbing Moncton Center
Thu 03:01:14 PM 47.4333 -66.1500 250° West 160 184 12,300 1,100 Climbing Moncton Center
Thu 03:02:14 PM 47.4167 -66.2000 244° Southwest 170 196 13,400 1,050 Climbing Moncton Center
Thu 03:03:14 PM 47.4000 -66.2833 254° West 180 207 14,400 1,100 Climbing Moncton Center
Thu 03:04:14 PM 47.3833 -66.3500 250° West 180 207 15,600 1,250 Climbing Moncton Center
Thu 03:05:14 PM 47.3500 -66.4167 234° Southwest 180 207 16,900 1,100 Climbing Moncton Center
Thu 03:06:14 PM 47.3333 -66.4667 244° Southwest 170 196 17,800 1,050 Climbing Moncton Center
Thu 03:07:14 PM 47.3167 -66.5500 254° West 180 207 19,000 1,050 Climbing Moncton Center
Thu 03:08:14 PM 47.3000 -66.6167 250° West 180 207 19,900 850 Climbing Moncton Center
Thu 03:09:14 PM 47.2667 -66.6667 226° Southwest 190 219 20,700 800 Climbing Moncton Center
Thu 03:10:14 PM 47.2333 -66.7333 234° Southwest 190 219 21,500 650 Climbing Moncton Center
Thu 03:11:14 PM 47.2000 -66.8167 240° Southwest 190 219 22,000 250 Climbing Moncton Center
Thu 03:12:14 PM 47.1833 -66.8833 250° West 210 242 22,000  Level Moncton Center
Thu 03:13:14 PM 47.1500 -66.9833 244° Southwest 230 265 22,000  Level Moncton Center
Thu 03:14:14 PM 47.1333 -67.0833 256° West 240 276 22,000  Level Moncton Center
Thu 03:15:14 PM 47.1000 -67.1500 234° Southwest 250 288 22,000  Level Moncton Center
Thu 03:16:14 PM 47.0667 -67.2500 244° Southwest 250 288 22,000  Level Moncton Center
Thu 03:17:14 PM 47.0333 -67.3500 244° Southwest 240 276 22,000  Level Moncton Center
Thu 03:18:08 PM 47.0172 -67.4139 250° West 253 291 22,000  Level Boston Center
Thu 03:19:08 PM 46.9856 -67.5019 242° Southwest 253 291 22,000  Level Boston Center
Thu 03:20:08 PM 46.9539 -67.5897 242° Southwest 253 291 22,000  Level Boston Center
Thu 03:21:20 PM 46.9222 -67.6808 243° Southwest 248 285 22,000  Level Boston Center
Thu 03:22:20 PM 46.8867 -67.7811 243° Southwest 248 285 22,000  Level Boston Center
Thu 03:23:20 PM 46.8547 -67.8717 243° Southwest 248 285 22,000  Level Boston Center
Thu 03:24:20 PM 46.8228 -67.9622 243° Southwest 248 285 22,000  Level Boston Center
Thu 03:25:20 PM 46.7886 -68.0469 240° Southwest 261 300 22,000  Level Boston Center
Thu 03:26:20 PM 46.7589 -68.1461 246° West 249 287 22,000  Level Boston Center
Thu 03:27:20 PM 46.7328 -68.2331 246° West 243 280 22,000  Level Boston Center
Thu 03:28:20 PM 46.7089 -68.3256 249° West 243 280 22,000  Level Boston Center
Thu 03:29:20 PM 46.6808 -68.4125 245° Southwest 238 274 22,000  Level Boston Center
Thu 03:30:20 PM 46.6544 -68.4989 246° West 238 274 22,000  Level Boston Center
Thu 03:31:20 PM 46.6306 -68.5883 249° West 238 274 22,000  Level Boston Center
Thu 03:32:20 PM 46.6022 -68.6778 245° Southwest 238 274 22,000  Level Boston Center
Thu 03:33:20 PM 46.5814 -68.7486 247° West 238 274 22,000  Level Boston Center
Thu 03:34:20 PM 46.5494 -68.8533 246° West 238 274 22,000  Level Boston Center
Thu 03:35:20 PM 46.5231 -68.9456 247° West 238 274 22,000  Level Boston Center
Thu 03:36:20 PM 46.4983 -69.0256 246° West 238 274 22,000  Level Boston Center
Thu 03:37:20 PM 46.4717 -69.1144 246° West 238 274 22,000  Level Boston Center
Thu 03:38:20 PM 46.4428 -69.2006 244° Southwest 238 274 22,000  Level Boston Center
Thu 03:39:20 PM 46.4161 -69.2864 246° West 238 274 22,000  Level Boston Center
Thu 03:40:20 PM 46.3892 -69.3722 246° West 238 274 22,000  Level Boston Center
Thu 03:41:20 PM 46.3642 -69.4578 247° West 238 274 22,000  Level Boston Center
Thu 03:42:20 PM 46.3375 -69.5464 246° West 238 274 22,000  Level Boston Center
Thu 03:43:20 PM 46.3103 -69.6319 245° Southwest 238 274 22,000  Level Boston Center
Thu 03:44:20 PM 46.2869 -69.7019 244° Southwest 238 274 22,000  Level Boston Center
Thu 03:45:20 PM 46.2539 -69.8056 245° Southwest 238 274 22,000  Level Boston Center
Thu 03:46:20 PM 46.2289 -69.8939 248° West 238 274 22,000  Level Boston Center
Thu 03:47:20 PM 46.2014 -69.9789 245° Southwest 238 274 22,000  Level Boston Center
Thu 03:48:32 PM 46.1722 -70.0672 245° Southwest 238 274 22,000  Level Boston Center
Thu 03:49:32 PM 46.1386 -70.1675 244° Southwest 238 274 22,000  Level Boston Center
Thu 03:50:07 PM 46.1167 -70.1833 207° Southwest 240 276 22,000  Level Montreal Center
Thu 03:51:07 PM 46.1000 -70.2833 257° West 240 276 22,000  Level Montreal Center
Thu 03:52:07 PM 46.0667 -70.3667 240° Southwest 240 276 22,000  Level Montreal Center
Thu 03:53:07 PM 46.0333 -70.4667 244° Southwest 240 276 22,000  Level Montreal Center
Thu 03:54:07 PM 46.0000 -70.5333 234° Southwest 230 265 22,000  Level Montreal Center
Thu 03:55:07 PM 45.9833 -70.6333 257° West 230 265 22,000  Level Montreal Center
Thu 03:56:07 PM 45.9500 -70.7167 240° Southwest 230 265 22,000  Level Montreal Center
Thu 03:57:07 PM 45.9167 -70.7833 234° Southwest 230 265 22,000  Level Montreal Center
Thu 03:58:07 PM 45.9000 -70.8833 257° West 230 265 22,000  Level Montreal Center
Thu 03:59:07 PM 45.9000 -70.9833 270° West 230 265 22,000  Level Montreal Center
Thu 04:00:07 PM 45.9000 -71.0500 270° West 230 265 22,000  Level Montreal Center
Thu 04:01:07 PM 45.8833 -71.1500 257° West 230 265 22,000  Level Montreal Center
Thu 04:02:07 PM 45.8667 -71.2500 257° West 230 265 22,000  Level Montreal Center
Thu 04:03:07 PM 45.8833 -71.3500 283° West 230 265 22,000  Level Montreal Center
Thu 04:04:07 PM 45.8667 -71.4167 250° West 230 265 22,000  Level Montreal Center
Thu 04:05:07 PM 45.8500 -71.5167 257° West 230 265 22,000  Level Montreal Center
Thu 04:06:07 PM 45.8333 -71.6167 257° West 230 265 22,000  Level Montreal Center
Thu 04:07:07 PM 45.8500 -71.7000 286° West 230 265 22,000  Level Montreal Center
Thu 04:08:07 PM 45.8333 -71.8000 257° West 230 265 22,000  Level Montreal Center
Thu 04:09:07 PM 45.8167 -71.8833 254° West 230 265 22,000  Level Montreal Center
Thu 04:10:07 PM 45.8000 -71.9833 257° West 230 265 22,000  Level Montreal Center
Thu 04:11:07 PM 45.8000 -72.0667 270° West 230 265 22,000  Level Montreal Center
Thu 04:12:07 PM 45.8000 -72.1667 270° West 230 265 22,000 -300 Level Montreal Center
Thu 04:13:07 PM 45.7833 -72.2667 257° West 240 276 21,400 -1,000 Descending Montreal Center
Thu 04:14:07 PM 45.7833 -72.3667 270° West 250 288 20,000 -1,350 Descending Montreal Center
Thu 04:15:07 PM 45.7667 -72.4667 257° West 260 299 18,700 -1,400 Descending Montreal Center
Thu 04:16:07 PM 45.7500 -72.5500 254° West 260 299 17,200 -1,400 Descending Montreal Center
Thu 04:17:07 PM 45.7500 -72.6500 270° West 260 299 15,900 -1,300 Descending Montreal Center
Thu 04:18:07 PM 45.7333 -72.7667 258° West 250 288 14,600 -1,300 Descending Montreal Center
Thu 04:19:07 PM 45.7333 -72.8667 270° West 250 288 13,300 -1,300 Descending Montreal Center
Thu 04:20:07 PM 45.7167 -72.9667 257° West 250 288 12,000 -1,200 Descending Montreal Center
Thu 04:21:07 PM 45.7000 -73.0333 250° West 240 276 10,900 -1,200 Descending Montreal Center
Thu 04:22:07 PM 45.6833 -73.1333 257° West 230 265 9,600 -1,450 Descending Montreal Center
Thu 04:23:07 PM 45.6667 -73.2333 257° West 210 242 8,000 -1,550 Descending Montreal Center
Thu 04:24:07 PM 45.6667 -73.3000 270° West 210 242 6,500 -1,450 Descending Montreal Center
Thu 04:25:07 PM 45.6500 -73.4000 257° West 230 265 5,100 -1,100 Descending Montreal Center
Thu 04:26:07 PM 45.6333 -73.5000 257° West 230 265 4,300 -800 Descending Montreal Center
Thu 04:27:07 PM 45.6000 -73.5667 234° Southwest 230 265 3,500 -950 Descending Montreal Center
Thu 04:28:07 PM 45.5500 -73.6167 215° Southwest 180 207 2,400 -1,000 Descending Montreal Center
Thu 04:29:07 PM 45.5167 -73.6667 226° Southwest 180 207 1,500 -900 Descending Montreal Center
Thu 04:30:07 PM 45.4833 -73.7000 215° Southwest 140 161 600 -700 Descending Montreal Center
Thu 04:31:07 PM 45.4667 -73.7167 215° Southwest 120 138 100 -250 Descending Montreal Center
Thu 04:32:07 PM 45.4500 -73.7500 235° Southwest 50 58 100  Level Montreal Center

Login

Don't have an account? Register now (free) for customized features, flight alerts, and more!